createdAt,value
2022-10-17T00:01:01.765Z,15.49
2022-10-17T00:03:58.821Z,15.45
2022-10-17T00:06:56.045Z,15.29
2022-10-17T00:09:53.029Z,15.29
2022-10-17T00:12:51.139Z,15.23
2022-10-17T00:15:48.079Z,15.36
2022-10-17T00:18:45.224Z,15.48
2022-10-17T00:21:41.556Z,15.50
2022-10-17T00:24:38.904Z,15.42
2022-10-17T00:27:37.105Z,15.40
2022-10-17T00:30:34.035Z,15.45
2022-10-17T00:33:31.051Z,15.48
2022-10-17T00:36:28.052Z,15.37
2022-10-17T00:39:25.360Z,15.24
2022-10-17T00:42:25.177Z,15.25
2022-10-17T00:45:29.601Z,15.25
2022-10-17T00:48:27.423Z,15.31
2022-10-17T00:51:35.185Z,15.33
2022-10-17T00:54:34.032Z,15.29
2022-10-17T00:57:31.179Z,15.25
2022-10-17T01:00:27.653Z,15.28
2022-10-17T01:03:25.151Z,15.29
2022-10-17T01:06:22.114Z,15.26
2022-10-17T01:09:18.812Z,15.19
2022-10-17T01:12:27.625Z,15.16
2022-10-17T01:15:39.893Z,15.09
2022-10-17T01:18:52.109Z,15.10
2022-10-17T01:22:28.059Z,15.13
2022-10-17T01:25:55.632Z,15.18
2022-10-17T01:29:17.723Z,15.15
2022-10-17T01:32:33.811Z,15.33
2022-10-17T01:35:41.300Z,15.56
2022-10-17T01:38:47.827Z,15.69
2022-10-17T01:41:47.178Z,15.90
2022-10-17T01:44:46.812Z,16.04
2022-10-17T01:47:43.835Z,16.04
2022-10-17T01:50:43.579Z,15.97
2022-10-17T01:53:44.806Z,15.82
2022-10-17T01:56:41.700Z,15.54
2022-10-17T01:59:42.868Z,15.15
2022-10-17T02:02:41.254Z,14.92
2022-10-17T02:05:41.366Z,14.81
2022-10-17T02:08:48.480Z,14.91
2022-10-17T02:12:04.325Z,15.10
2022-10-17T02:15:40.410Z,15.40
2022-10-17T02:18:51.040Z,15.48
2022-10-17T02:22:10.623Z,15.38
2022-10-17T02:25:19.103Z,15.21
2022-10-17T02:28:21.053Z,15.10
2022-10-17T02:31:27.272Z,14.91
2022-10-17T02:34:29.344Z,14.73
2022-10-17T02:37:27.747Z,14.58
2022-10-17T02:40:24.927Z,14.44
2022-10-17T02:43:22.995Z,14.43
2022-10-17T02:46:22.316Z,14.46
2022-10-17T02:49:24.559Z,14.46
2022-10-17T02:53:07.743Z,14.53
2022-10-17T02:56:09.069Z,14.60
2022-10-17T02:59:06.179Z,14.58
2022-10-17T03:02:06.539Z,14.64
2022-10-17T03:05:04.208Z,14.74
2022-10-17T03:08:01.010Z,14.77
2022-10-17T03:10:58.059Z,14.72
2022-10-17T03:13:56.844Z,14.72
2022-10-17T03:16:53.767Z,14.69
2022-10-17T03:19:51.141Z,14.59
2022-10-17T03:22:48.127Z,14.47
2022-10-17T03:25:45.179Z,14.47
2022-10-17T03:28:44.188Z,14.51
2022-10-17T03:31:42.211Z,14.49
2022-10-17T03:34:40.000Z,14.45
2022-10-17T03:37:37.814Z,14.41
2022-10-17T03:40:35.227Z,14.40
2022-10-17T03:43:31.735Z,14.37
2022-10-17T03:46:29.029Z,14.37
2022-10-17T03:49:31.020Z,14.36
2022-10-17T03:52:27.866Z,14.42
2022-10-17T03:55:26.339Z,14.50
2022-10-17T03:58:23.968Z,14.57
2022-10-17T04:01:22.304Z,14.60
2022-10-17T04:04:20.208Z,14.70
2022-10-17T04:07:17.042Z,14.81
2022-10-17T04:10:15.951Z,14.87
2022-10-17T04:13:13.135Z,14.81
2022-10-17T04:16:18.010Z,14.72
2022-10-17T04:19:22.151Z,14.73
2022-10-17T04:22:20.005Z,14.72
2022-10-17T04:25:16.857Z,14.70
2022-10-17T04:28:17.199Z,14.64
2022-10-17T04:31:14.502Z,14.60
2022-10-17T04:34:31.105Z,14.55
2022-10-17T04:37:29.331Z,14.59
2022-10-17T04:40:27.000Z,14.63
2022-10-17T04:43:24.287Z,14.61
2022-10-17T04:46:22.134Z,14.63
2022-10-17T04:49:19.080Z,14.59
2022-10-17T04:52:19.028Z,14.59
2022-10-17T04:55:19.039Z,14.62
2022-10-17T04:58:16.071Z,14.63
2022-10-17T05:01:15.782Z,14.66
2022-10-17T05:04:15.073Z,14.77
2022-10-17T05:07:13.258Z,14.87
2022-10-17T05:10:13.170Z,15.03
2022-10-17T05:13:13.791Z,15.25
2022-10-17T05:16:11.224Z,15.47
2022-10-17T05:19:08.155Z,15.48
2022-10-17T05:22:13.190Z,15.35
2022-10-17T05:25:12.150Z,15.24
2022-10-17T05:28:09.084Z,15.10
2022-10-17T05:31:08.457Z,14.96
2022-10-17T05:34:08.043Z,14.87
2022-10-17T05:37:08.400Z,14.81
2022-10-17T05:40:06.886Z,14.72
2022-10-17T05:43:04.174Z,14.59
2022-10-17T05:46:06.162Z,14.55
2022-10-17T05:49:14.713Z,14.63
2022-10-17T05:52:20.917Z,14.73
2022-10-17T05:55:29.061Z,14.79
2022-10-17T06:01:57.049Z,14.80
2022-10-17T06:04:53.943Z,14.88
2022-10-17T06:07:57.007Z,14.93
2022-10-17T06:10:57.085Z,14.97
2022-10-17T06:13:54.125Z,15.04
2022-10-17T06:16:55.239Z,14.99
2022-10-17T06:19:52.229Z,15.01
2022-10-17T06:22:49.160Z,15.01
2022-10-17T06:25:54.261Z,15.04
2022-10-17T06:28:50.999Z,15.01
2022-10-17T06:31:48.794Z,14.98
2022-10-17T06:34:46.016Z,15.15
2022-10-17T06:37:43.163Z,15.18
2022-10-17T06:40:40.147Z,15.27
2022-10-17T06:43:37.652Z,15.40
2022-10-17T06:46:53.512Z,15.51
2022-10-17T06:49:52.075Z,15.57
2022-10-17T06:52:55.001Z,15.59
2022-10-17T06:56:19.481Z,15.54
2022-10-17T06:59:37.083Z,15.56
2022-10-17T07:02:40.032Z,15.69
2022-10-17T07:05:37.345Z,15.76
2022-10-17T07:08:34.190Z,15.88
2022-10-17T07:11:33.793Z,16.05
2022-10-17T07:14:32.305Z,16.10
2022-10-17T07:17:31.356Z,16.25
2022-10-17T07:20:29.304Z,16.34
2022-10-17T07:23:26.000Z,16.50
2022-10-17T07:26:24.779Z,16.50
2022-10-17T07:29:22.170Z,16.56
2022-10-17T07:32:35.390Z,16.66
2022-10-17T07:35:33.322Z,16.70
2022-10-17T07:38:31.353Z,16.87
2022-10-17T07:41:28.194Z,16.89
2022-10-17T07:44:25.600Z,16.99
2022-10-17T07:47:23.908Z,17.20
2022-10-17T07:50:22.409Z,17.37
2022-10-17T07:53:19.062Z,17.45
2022-10-17T07:56:16.651Z,17.54
2022-10-17T07:59:14.092Z,17.76
2022-10-17T08:02:24.833Z,17.74
2022-10-17T08:05:22.182Z,17.97
2022-10-17T08:08:19.343Z,18.16
2022-10-17T08:11:16.096Z,18.24
2022-10-17T08:14:13.645Z,18.27
2022-10-17T08:17:11.414Z,18.58
2022-10-17T08:20:08.777Z,18.66
2022-10-17T08:23:06.382Z,18.70
2022-10-17T08:26:05.038Z,18.66
2022-10-17T08:29:02.235Z,18.84
2022-10-17T08:32:01.843Z,18.79
2022-10-17T08:34:59.038Z,18.84
2022-10-17T08:37:58.509Z,19.09
2022-10-17T08:41:00.495Z,19.32
2022-10-17T08:44:03.260Z,19.54
2022-10-17T08:47:01.771Z,19.70
2022-10-17T08:50:00.894Z,19.98
2022-10-17T08:53:09.252Z,20.02
2022-10-17T08:56:19.881Z,20.10
2022-10-17T08:59:28.749Z,20.13
2022-10-17T09:02:38.011Z,20.25
2022-10-17T09:05:42.324Z,20.40
2022-10-17T09:08:55.147Z,20.46
2022-10-17T09:11:59.010Z,20.48
2022-10-17T09:15:02.123Z,20.58
2022-10-17T09:18:22.290Z,20.77
2022-10-17T09:21:27.171Z,20.52
2022-10-17T09:24:41.383Z,20.45
2022-10-17T09:27:46.976Z,20.46
2022-10-17T09:30:46.720Z,20.60
2022-10-17T09:34:00.731Z,20.65
2022-10-17T09:36:59.577Z,20.58
2022-10-17T09:39:56.466Z,20.68
2022-10-17T09:42:53.632Z,20.71
2022-10-17T09:46:06.645Z,20.60
2022-10-17T09:49:17.251Z,20.56
2022-10-17T09:52:18.382Z,20.56
2022-10-17T09:55:19.292Z,20.69
2022-10-17T09:58:16.589Z,20.63
2022-10-17T10:01:24.548Z,20.67
2022-10-17T10:04:22.329Z,20.52
2022-10-17T10:07:21.479Z,20.47
2022-10-17T10:10:27.647Z,20.62
2022-10-17T10:13:26.263Z,20.54
2022-10-17T10:16:31.963Z,20.37
2022-10-17T10:19:31.670Z,20.36
2022-10-17T10:22:28.673Z,20.47
2022-10-17T10:25:26.536Z,20.38
2022-10-17T10:28:28.962Z,20.45
2022-10-17T10:31:28.825Z,20.54
2022-10-17T10:34:28.980Z,20.38
2022-10-17T10:37:30.954Z,20.37
2022-10-17T10:40:32.961Z,20.48
2022-10-17T10:43:35.534Z,20.53
2022-10-17T10:46:32.453Z,20.50
2022-10-17T10:49:30.868Z,20.54
2022-10-17T10:52:34.509Z,20.48
2022-10-17T10:55:35.031Z,20.41
2022-10-17T10:59:06.029Z,20.35
2022-10-17T11:02:20.538Z,20.36
2022-10-17T11:05:42.558Z,20.40
2022-10-17T11:08:42.216Z,20.47
2022-10-17T11:11:45.222Z,20.52
2022-10-17T11:15:04.080Z,20.46
2022-10-17T11:18:03.176Z,20.43
2022-10-17T11:21:11.813Z,20.36
2022-10-17T11:24:23.933Z,20.20
2022-10-17T11:27:21.447Z,20.22
2022-10-17T11:30:18.414Z,20.33
2022-10-17T11:33:41.140Z,20.21
2022-10-17T11:36:40.295Z,20.26
2022-10-17T11:40:30.784Z,20.02
2022-10-17T11:43:34.474Z,19.92
2022-10-17T11:46:31.417Z,19.88
2022-10-17T11:49:40.514Z,19.83
2022-10-17T11:52:55.991Z,19.91
2022-10-17T11:55:54.711Z,19.85
2022-10-17T11:59:17.341Z,19.89
2022-10-17T12:02:29.454Z,20.13
2022-10-17T12:05:55.618Z,20.18
2022-10-17T12:09:01.240Z,20.14
2022-10-17T12:12:00.079Z,20.27
2022-10-17T12:15:25.456Z,20.25
2022-10-17T12:18:25.106Z,20.14
2022-10-17T12:21:22.556Z,20.31
2022-10-17T12:24:31.407Z,20.43
2022-10-17T12:27:46.042Z,20.28
2022-10-17T12:30:51.548Z,20.18
2022-10-17T12:34:16.250Z,20.07
2022-10-17T12:37:15.133Z,20.07
2022-10-17T12:40:37.456Z,20.13
2022-10-17T12:43:43.951Z,19.98
2022-10-17T12:46:44.424Z,19.97
2022-10-17T12:49:45.746Z,19.57
2022-10-17T12:52:42.570Z,19.51
2022-10-17T12:55:39.716Z,19.61
2022-10-17T12:58:36.546Z,19.17
2022-10-17T13:01:34.387Z,19.14
2022-10-17T13:04:31.544Z,19.51
2022-10-17T13:07:28.546Z,19.77
2022-10-17T13:10:29.257Z,19.85
2022-10-17T13:13:35.839Z,20.00
2022-10-17T13:16:51.684Z,20.07
2022-10-17T13:19:48.824Z,20.10
2022-10-17T13:22:45.545Z,19.99
2022-10-17T13:25:42.990Z,20.00
2022-10-17T13:28:40.875Z,20.03
2022-10-17T13:31:40.637Z,19.98
2022-10-17T13:34:37.732Z,20.06
2022-10-17T13:37:35.508Z,20.12
2022-10-17T13:40:48.406Z,20.12
2022-10-17T13:43:47.429Z,20.07
2022-10-17T13:46:45.077Z,19.90
2022-10-17T13:49:43.032Z,19.97
2022-10-17T13:52:40.423Z,19.98
2022-10-17T13:55:37.574Z,19.99
2022-10-17T13:58:45.808Z,19.95
2022-10-17T14:01:42.500Z,19.86
2022-10-17T14:05:04.099Z,19.83
2022-10-17T14:08:11.230Z,19.92
2022-10-17T14:11:24.154Z,20.02
2022-10-17T14:14:23.555Z,20.02
2022-10-17T14:17:29.015Z,20.04
2022-10-17T14:23:46.731Z,20.07
2022-10-17T14:26:48.333Z,20.12
2022-10-17T14:29:52.988Z,20.01
2022-10-17T14:32:50.329Z,20.04
2022-10-17T14:35:51.781Z,19.98
2022-10-17T14:38:51.268Z,20.06
2022-10-17T14:41:48.769Z,19.96
2022-10-17T14:44:50.980Z,19.98
2022-10-17T14:47:50.104Z,20.09
2022-10-17T14:51:06.014Z,20.18
2022-10-17T14:54:35.024Z,20.21
2022-10-17T14:57:32.530Z,20.22
2022-10-17T15:00:29.642Z,20.22
2022-10-17T15:03:26.807Z,20.15
2022-10-17T15:06:29.636Z,20.12
2022-10-17T15:09:29.258Z,19.78
2022-10-17T15:12:26.777Z,19.61
2022-10-17T15:15:23.773Z,19.60
2022-10-17T15:18:20.866Z,19.70
2022-10-17T15:21:33.304Z,19.70
2022-10-17T15:24:34.686Z,19.52
2022-10-17T15:27:32.727Z,19.52
2022-10-17T15:30:32.892Z,19.61
2022-10-17T15:33:29.531Z,19.58
2022-10-17T15:36:29.052Z,19.59
2022-10-17T15:39:26.476Z,19.61
2022-10-17T15:42:28.083Z,19.80
2022-10-17T15:45:25.884Z,19.84
2022-10-17T15:48:28.019Z,19.69
2022-10-17T15:51:25.478Z,19.67
2022-10-17T15:54:22.464Z,19.46
2022-10-17T15:57:27.986Z,19.49
2022-10-17T16:00:25.532Z,19.40
2022-10-17T16:06:24.732Z,19.08
2022-10-17T16:09:21.655Z,19.09
2022-10-17T16:15:22.982Z,18.97
2022-10-17T16:18:20.215Z,18.88
2022-10-17T16:21:18.081Z,18.76
2022-10-17T16:24:15.869Z,18.75
2022-10-17T16:27:13.075Z,18.81
2022-10-17T16:30:10.613Z,18.84
2022-10-17T16:33:07.733Z,18.93
2022-10-17T16:36:04.601Z,19.02
2022-10-17T16:39:01.712Z,19.13
2022-10-17T16:41:58.900Z,19.26
2022-10-17T16:44:55.960Z,19.36
2022-10-17T16:47:53.389Z,19.42
2022-10-17T16:50:50.650Z,19.46
2022-10-17T16:53:50.270Z,19.51
2022-10-17T16:56:47.770Z,19.58
2022-10-17T16:59:44.635Z,19.65
2022-10-17T17:02:41.672Z,19.66
2022-10-17T17:05:38.785Z,19.69
2022-10-17T17:08:37.350Z,19.69
2022-10-17T17:11:34.490Z,19.77
2022-10-17T17:14:31.941Z,19.81
2022-10-17T17:17:37.319Z,19.79
2022-10-17T17:20:45.726Z,19.65
2022-10-17T17:23:43.319Z,19.68
2022-10-17T17:26:41.806Z,19.70
2022-10-17T17:29:40.808Z,19.66
2022-10-17T17:32:38.092Z,19.63
2022-10-17T17:35:35.393Z,19.72
2022-10-17T17:38:34.061Z,19.69
2022-10-17T17:41:32.140Z,19.54
2022-10-17T17:44:29.853Z,19.36
2022-10-17T17:47:29.206Z,19.36
2022-10-17T17:50:26.912Z,19.44
2022-10-17T17:53:23.813Z,19.33
2022-10-17T17:56:28.761Z,19.45
2022-10-17T17:59:26.107Z,19.55
2022-10-17T18:02:23.760Z,19.56
2022-10-17T18:05:20.895Z,19.33
2022-10-17T18:08:17.949Z,19.42
2022-10-17T18:11:17.173Z,19.56
2022-10-17T18:14:19.113Z,19.55
2022-10-17T18:17:15.596Z,19.46
2022-10-17T18:20:13.037Z,19.45
2022-10-17T18:23:10.525Z,19.50
2022-10-17T18:26:07.858Z,19.48
2022-10-17T18:29:04.801Z,19.44
2022-10-17T18:32:01.987Z,19.42
2022-10-17T18:34:58.761Z,19.36
2022-10-17T18:37:57.110Z,19.37
2022-10-17T18:41:02.945Z,19.35
2022-10-17T18:43:59.765Z,19.37
2022-10-17T18:46:59.893Z,19.27
2022-10-17T18:50:01.181Z,19.33
2022-10-17T18:52:58.520Z,19.30
2022-10-17T18:55:56.226Z,19.34
2022-10-17T18:58:53.877Z,19.32
2022-10-17T19:01:51.225Z,19.23
2022-10-17T19:07:47.351Z,19.08
2022-10-17T19:10:44.880Z,19.11
2022-10-17T19:13:42.267Z,19.17
2022-10-17T19:16:45.358Z,19.10
2022-10-17T19:19:43.261Z,19.09
2022-10-17T19:22:40.665Z,19.15
2022-10-17T19:25:38.048Z,19.15
2022-10-17T19:28:35.075Z,19.11
2022-10-17T19:31:32.733Z,19.07
2022-10-17T19:34:30.151Z,19.07
2022-10-17T19:37:26.900Z,19.08
2022-10-17T19:40:23.773Z,19.13
2022-10-17T19:43:20.927Z,19.04
2022-10-17T19:46:19.257Z,19.03
2022-10-17T19:49:17.148Z,19.05
2022-10-17T19:52:14.881Z,19.02
2022-10-17T19:55:11.747Z,19.10
2022-10-17T19:58:08.735Z,19.01
2022-10-17T20:01:05.927Z,18.98
2022-10-17T20:04:03.154Z,19.03
2022-10-17T20:07:01.422Z,19.06
2022-10-17T20:09:58.717Z,19.07
2022-10-17T20:12:55.907Z,19.06
2022-10-17T20:15:56.760Z,19.07
2022-10-17T20:18:55.829Z,19.15
2022-10-17T20:21:53.004Z,19.15
2022-10-17T20:24:50.041Z,19.11
2022-10-17T20:27:46.576Z,19.09
2022-10-17T20:30:45.670Z,19.04
2022-10-17T20:33:43.067Z,19.10
2022-10-17T20:36:40.091Z,19.10
2022-10-17T20:39:36.839Z,19.12
2022-10-17T20:42:33.943Z,19.07
2022-10-17T20:45:44.255Z,19.05
2022-10-17T20:48:55.102Z,19.13
2022-10-17T20:51:51.931Z,19.16
2022-10-17T20:54:48.789Z,19.10
2022-10-17T20:57:45.841Z,19.12
2022-10-17T21:00:42.909Z,19.10
2022-10-17T21:03:43.840Z,19.15
2022-10-17T21:06:48.227Z,19.14
2022-10-17T21:09:46.377Z,19.22
2022-10-17T21:12:53.875Z,19.01
2022-10-17T21:15:52.145Z,19.06
2022-10-17T21:18:49.488Z,19.16
2022-10-17T21:21:46.909Z,19.02
2022-10-17T21:24:43.719Z,18.99
2022-10-17T21:27:41.173Z,19.14
2022-10-17T21:30:37.978Z,19.19
2022-10-17T21:33:34.978Z,19.13
2022-10-17T21:36:31.694Z,19.14
2022-10-17T21:39:28.748Z,19.12
2022-10-17T21:42:25.684Z,18.96
2022-10-17T21:45:25.979Z,18.93
2022-10-17T21:48:23.123Z,18.89
2022-10-17T21:51:25.118Z,18.83
2022-10-17T21:54:23.071Z,18.90
2022-10-17T21:57:20.235Z,18.97
2022-10-17T22:00:17.151Z,18.83
2022-10-17T22:03:15.222Z,18.65
2022-10-17T22:06:41.747Z,18.50
2022-10-17T22:09:30.215Z,18.52
2022-10-17T22:12:27.145Z,18.73
2022-10-17T22:15:24.078Z,18.62
2022-10-17T22:18:20.820Z,18.65
2022-10-17T22:21:20.121Z,18.69
2022-10-17T22:24:18.064Z,18.62
2022-10-17T22:27:14.790Z,18.58
2022-10-17T22:30:12.230Z,18.73
2022-10-17T22:33:09.093Z,18.70
2022-10-17T22:36:07.077Z,18.73
2022-10-17T22:39:03.922Z,18.75
2022-10-17T22:42:01.085Z,18.75
2022-10-17T22:44:58.066Z,18.79
2022-10-17T22:47:54.925Z,18.94
2022-10-17T22:50:52.470Z,18.97
2022-10-17T22:53:49.817Z,18.92
2022-10-17T22:56:46.859Z,18.91
2022-10-17T22:59:43.894Z,18.93
2022-10-17T23:02:40.665Z,18.96
2022-10-17T23:05:38.127Z,18.98
2022-10-17T23:08:35.204Z,18.87
2022-10-17T23:11:31.999Z,18.70
2022-10-17T23:14:28.969Z,18.65
2022-10-17T23:17:26.146Z,18.76
2022-10-17T23:20:23.054Z,18.63
2022-10-17T23:23:20.352Z,18.60
2022-10-17T23:26:16.825Z,18.59
2022-10-17T23:29:13.908Z,18.57
2022-10-17T23:32:10.975Z,18.23
2022-10-17T23:35:08.642Z,18.37
2022-10-17T23:38:06.202Z,18.31
2022-10-17T23:41:02.986Z,18.17
2022-10-17T23:43:59.971Z,18.40
2022-10-17T23:46:57.008Z,18.60
2022-10-17T23:49:53.849Z,18.68
2022-10-17T23:52:50.981Z,18.29
2022-10-17T23:55:47.998Z,18.14
2022-10-17T23:58:45.285Z,18.10
